createdAt,value
2018-03-30T00:00:48.499Z,99.90
2018-03-30T00:03:16.027Z,99.90
2018-03-30T00:05:43.577Z,99.90
2018-03-30T00:08:11.092Z,99.90
2018-03-30T00:10:44.364Z,99.90
2018-03-30T00:13:11.863Z,99.90
2018-03-30T00:15:40.123Z,99.90
2018-03-30T00:18:07.622Z,99.90
2018-03-30T00:20:35.118Z,99.90
2018-03-30T00:23:02.608Z,99.90
2018-03-30T00:25:30.115Z,99.90
2018-03-30T00:27:57.657Z,99.90
2018-03-30T00:30:25.182Z,99.90
2018-03-30T00:32:53.610Z,99.90
2018-03-30T00:35:21.139Z,99.90
2018-03-30T00:37:49.417Z,99.90
2018-03-30T00:40:17.711Z,99.90
2018-03-30T00:42:45.261Z,99.90
2018-03-30T00:45:12.825Z,99.90
2018-03-30T00:47:40.310Z,99.90
2018-03-30T00:50:09.439Z,99.90
2018-03-30T00:52:36.938Z,99.90
2018-03-30T00:55:04.525Z,99.90
2018-03-30T00:57:32.043Z,99.90
2018-03-30T01:00:00.315Z,99.90
2018-03-30T01:02:28.610Z,99.90
2018-03-30T01:04:56.129Z,99.90
2018-03-30T01:07:23.634Z,99.90
2018-03-30T01:09:51.187Z,99.90
2018-03-30T01:12:18.678Z,99.90
2018-03-30T01:14:46.182Z,99.90
2018-03-30T01:17:14.426Z,99.90
2018-03-30T01:19:42.031Z,99.90
2018-03-30T01:22:10.338Z,99.90
2018-03-30T01:24:37.842Z,99.90
2018-03-30T01:27:05.351Z,99.90
2018-03-30T01:29:32.876Z,99.90
2018-03-30T01:32:01.144Z,99.90
2018-03-30T01:34:28.630Z,99.90
2018-03-30T01:36:56.196Z,99.90
2018-03-30T01:39:23.756Z,99.90
2018-03-30T01:41:51.294Z,99.90
2018-03-30T01:44:19.565Z,99.90
2018-03-30T01:46:47.836Z,99.90
2018-03-30T01:49:16.090Z,99.90
2018-03-30T01:51:43.698Z,99.90
2018-03-30T01:54:11.199Z,99.90
2018-03-30T01:56:38.696Z,99.90
2018-03-30T01:59:06.962Z,99.90
2018-03-30T02:01:34.551Z,99.90
2018-03-30T02:04:02.050Z,99.90
2018-03-30T02:06:29.560Z,99.90
2018-03-30T02:08:57.075Z,99.90
2018-03-30T02:11:24.652Z,99.90
2018-03-30T02:13:52.151Z,99.90
2018-03-30T02:16:19.637Z,99.90
2018-03-30T02:18:47.199Z,99.90
2018-03-30T02:21:14.709Z,99.90
2018-03-30T02:23:42.247Z,99.90
2018-03-30T02:26:09.843Z,99.90
2018-03-30T02:28:37.351Z,99.90
2018-03-30T02:31:04.852Z,99.90
2018-03-30T02:33:32.359Z,99.90
2018-03-30T02:35:59.866Z,99.90
2018-03-30T02:38:28.144Z,99.90
2018-03-30T02:40:55.661Z,99.90
2018-03-30T02:43:23.173Z,99.90
2018-03-30T02:45:50.655Z,99.90
2018-03-30T02:48:18.167Z,99.90
2018-03-30T02:50:46.444Z,99.90
2018-03-30T02:53:14.724Z,99.90
2018-03-30T02:55:42.993Z,99.90
2018-03-30T02:58:11.926Z,99.90
2018-03-30T03:00:39.461Z,99.90
2018-03-30T03:03:07.748Z,99.90
2018-03-30T03:05:35.300Z,99.90
2018-03-30T03:08:03.575Z,99.90
2018-03-30T03:10:31.851Z,99.90
2018-03-30T03:13:00.123Z,99.90
2018-03-30T03:15:28.386Z,99.90
2018-03-30T03:17:55.960Z,99.90
2018-03-30T03:20:24.235Z,99.90
2018-03-30T03:22:52.504Z,99.90
2018-03-30T03:25:20.766Z,99.90
2018-03-30T03:27:48.268Z,99.90
2018-03-30T03:30:15.834Z,99.90
2018-03-30T03:32:43.343Z,99.90
2018-03-30T03:35:10.826Z,99.90
2018-03-30T03:37:39.106Z,99.90
2018-03-30T03:40:07.362Z,99.90
2018-03-30T03:42:34.854Z,99.90
2018-03-30T03:45:02.376Z,99.90
2018-03-30T03:47:29.955Z,99.90
2018-03-30T03:49:58.227Z,99.90
2018-03-30T03:52:26.501Z,99.90
2018-03-30T03:54:54.780Z,99.90
2018-03-30T03:57:23.029Z,99.90
2018-03-30T03:59:50.619Z,99.90
2018-03-30T04:02:18.913Z,99.90
2018-03-30T04:04:46.479Z,99.90
2018-03-30T04:07:13.990Z,99.90
2018-03-30T04:09:41.486Z,99.90
2018-03-30T04:12:09.063Z,99.90
2018-03-30T04:14:36.572Z,99.90
2018-03-30T04:17:04.878Z,99.90
2018-03-30T04:19:32.438Z,99.90
2018-03-30T04:22:00.719Z,99.90
2018-03-30T04:24:28.213Z,99.90
2018-03-30T04:26:55.706Z,99.90
2018-03-30T04:29:23.225Z,99.90
2018-03-30T04:31:50.751Z,99.90
2018-03-30T04:34:19.019Z,99.90
2018-03-30T04:36:47.312Z,99.90
2018-03-30T04:39:14.812Z,99.90
2018-03-30T04:41:42.326Z,99.90
2018-03-30T04:44:09.853Z,99.90
2018-03-30T04:46:37.345Z,99.90
2018-03-30T04:49:04.844Z,99.90
2018-03-30T04:51:32.367Z,99.90
2018-03-30T04:53:59.851Z,99.90
2018-03-30T04:56:27.787Z,99.90
2018-03-30T04:58:55.373Z,99.90
2018-03-30T05:01:22.906Z,99.90
2018-03-30T05:03:51.147Z,99.90
2018-03-30T05:06:18.660Z,99.90
2018-03-30T05:08:46.164Z,99.90
2018-03-30T05:11:13.647Z,99.90
2018-03-30T05:13:41.952Z,99.90
2018-03-30T05:16:09.823Z,99.90
2018-03-30T05:18:37.319Z,99.90
2018-03-30T05:21:04.841Z,99.90
2018-03-30T05:23:32.325Z,99.90
2018-03-30T05:25:59.824Z,99.90
2018-03-30T05:28:28.116Z,99.90
2018-03-30T05:30:55.602Z,99.90
2018-03-30T05:33:23.115Z,99.90
2018-03-30T05:35:51.400Z,99.90
2018-03-30T05:38:19.674Z,99.90
2018-03-30T05:40:48.081Z,99.90
2018-03-30T05:43:15.595Z,99.90
2018-03-30T05:45:43.865Z,99.90
2018-03-30T05:48:11.353Z,99.90
2018-03-30T05:50:39.726Z,99.90
2018-03-30T05:53:07.996Z,99.90
2018-03-30T05:55:36.254Z,99.90
2018-03-30T05:58:03.766Z,99.90
2018-03-30T06:00:31.295Z,99.90
2018-03-30T06:02:59.580Z,99.90
2018-03-30T06:05:27.954Z,99.90
2018-03-30T06:07:56.320Z,99.90
2018-03-30T06:10:24.585Z,99.90
2018-03-30T06:12:52.091Z,99.90
2018-03-30T06:15:20.339Z,99.90
2018-03-30T06:17:48.595Z,99.90
2018-03-30T06:20:16.883Z,99.90
2018-03-30T06:22:44.385Z,99.90
2018-03-30T06:25:11.861Z,99.90
2018-03-30T06:27:39.399Z,99.90
2018-03-30T06:30:06.909Z,99.90
2018-03-30T06:32:34.489Z,99.90
2018-03-30T06:35:02.033Z,99.90
2018-03-30T06:37:29.516Z,99.90
2018-03-30T06:39:57.767Z,99.90
2018-03-30T06:42:25.287Z,99.90
2018-03-30T06:44:52.796Z,99.90
2018-03-30T06:47:21.067Z,99.90
2018-03-30T06:49:49.355Z,99.90
2018-03-30T06:52:17.607Z,99.90
2018-03-30T06:54:45.222Z,99.90
2018-03-30T06:57:12.743Z,99.90
2018-03-30T06:59:40.995Z,99.90
2018-03-30T07:02:08.498Z,99.90
2018-03-30T07:04:36.008Z,99.90
2018-03-30T07:07:03.516Z,99.90
2018-03-30T07:09:31.619Z,99.90
2018-03-30T07:11:59.118Z,99.90
2018-03-30T07:14:26.603Z,99.90
2018-03-30T07:16:54.134Z,99.90
2018-03-30T07:19:21.724Z,99.90
2018-03-30T07:21:49.208Z,99.90
2018-03-30T07:24:16.710Z,99.90
2018-03-30T07:26:44.970Z,99.90
2018-03-30T07:29:13.429Z,99.90
2018-03-30T07:31:40.909Z,99.90
2018-03-30T07:34:08.956Z,99.90
2018-03-30T07:36:36.441Z,99.90
2018-03-30T07:39:03.943Z,99.90
2018-03-30T07:41:31.496Z,99.90
2018-03-30T07:43:59.747Z,99.90
2018-03-30T07:46:27.329Z,99.90
2018-03-30T07:48:55.594Z,99.90
2018-03-30T07:51:23.085Z,99.90
2018-03-30T07:53:50.585Z,99.90
2018-03-30T07:56:18.095Z,99.90
2018-03-30T07:58:45.565Z,99.90
2018-03-30T08:01:13.059Z,99.90
2018-03-30T08:03:40.654Z,99.90
2018-03-30T08:06:08.939Z,99.90
2018-03-30T08:08:37.206Z,99.90
2018-03-30T08:11:05.498Z,99.90
2018-03-30T08:13:32.989Z,99.90
2018-03-30T08:16:00.553Z,99.90
2018-03-30T08:18:28.062Z,99.90
2018-03-30T08:20:56.318Z,99.90
2018-03-30T08:23:23.913Z,99.90
2018-03-30T08:25:51.463Z,99.90
2018-03-30T08:28:19.888Z,99.90
2018-03-30T08:30:47.446Z,99.90
2018-03-30T08:33:15.035Z,99.90
2018-03-30T08:35:42.603Z,99.90
2018-03-30T08:38:10.192Z,99.90
2018-03-30T08:40:38.462Z,99.90
2018-03-30T08:43:06.751Z,99.90
2018-03-30T08:45:34.368Z,99.90
2018-03-30T08:48:01.895Z,99.90
2018-03-30T08:50:29.398Z,99.90
2018-03-30T08:52:56.878Z,99.90
2018-03-30T08:55:25.205Z,99.90
2018-03-30T08:57:52.687Z,99.90
2018-03-30T09:00:20.183Z,99.90
2018-03-30T09:02:47.693Z,99.90
2018-03-30T09:05:15.183Z,99.90
2018-03-30T09:07:43.435Z,99.90
2018-03-30T09:10:10.954Z,99.90
2018-03-30T09:12:38.471Z,99.90
2018-03-30T09:15:06.809Z,99.90
2018-03-30T09:17:34.310Z,99.90
2018-03-30T09:20:02.603Z,99.90
2018-03-30T09:22:30.093Z,99.90
2018-03-30T09:24:57.624Z,99.90
2018-03-30T09:27:25.114Z,99.80
2018-03-30T09:29:53.495Z,99.90
2018-03-30T09:32:21.022Z,98.60
2018-03-30T09:34:48.573Z,97.80
2018-03-30T09:37:17.685Z,97.10
2018-03-30T09:39:45.310Z,97.10
2018-03-30T09:42:13.593Z,97.60
2018-03-30T09:44:41.869Z,97.00
2018-03-30T09:47:10.147Z,97.30
2018-03-30T09:49:38.447Z,96.70
2018-03-30T09:52:05.962Z,96.80
2018-03-30T09:54:33.481Z,94.70
2018-03-30T09:57:00.965Z,93.90
2018-03-30T09:59:28.875Z,93.30
2018-03-30T10:01:57.193Z,91.70
2018-03-30T10:04:28.718Z,91.70
2018-03-30T10:06:56.330Z,91.10
2018-03-30T10:09:23.852Z,89.60
2018-03-30T10:11:51.331Z,79.40
2018-03-30T10:14:18.839Z,77.80
2018-03-30T10:16:47.086Z,71.70
2018-03-30T10:19:14.590Z,72.10
2018-03-30T10:21:42.131Z,57.90
2018-03-30T10:24:10.393Z,52.90
2018-03-30T10:26:37.898Z,53.00
2018-03-30T10:29:05.401Z,55.80
2018-03-30T10:31:32.904Z,51.60
2018-03-30T10:34:00.455Z,51.10
2018-03-30T10:36:27.979Z,44.80
2018-03-30T10:38:55.477Z,45.50
2018-03-30T10:41:22.974Z,43.80
2018-03-30T10:43:50.487Z,44.80
2018-03-30T10:46:17.971Z,46.50
2018-03-30T10:48:45.484Z,46.50
2018-03-30T10:51:12.961Z,42.30
2018-03-30T10:53:40.456Z,39.40
2018-03-30T10:56:07.971Z,37.60
2018-03-30T10:58:35.497Z,39.20
2018-03-30T11:01:02.987Z,37.60
2018-03-30T11:03:30.494Z,37.20
2018-03-30T11:05:58.001Z,38.90
2018-03-30T11:08:26.246Z,36.00
2018-03-30T11:10:53.742Z,35.90
2018-03-30T11:13:21.523Z,34.80
2018-03-30T11:15:49.066Z,34.50
2018-03-30T11:18:17.339Z,33.80
2018-03-30T11:20:45.758Z,33.40
2018-03-30T11:23:13.242Z,33.30
2018-03-30T11:25:40.736Z,31.80
2018-03-30T11:28:09.010Z,33.50
2018-03-30T11:30:36.614Z,33.40
2018-03-30T11:33:04.141Z,31.60
2018-03-30T11:35:31.646Z,32.20
2018-03-30T11:37:59.228Z,32.20
2018-03-30T11:40:26.716Z,32.50
2018-03-30T11:42:55.021Z,30.70
2018-03-30T11:45:22.502Z,30.70
2018-03-30T11:47:49.994Z,31.20
2018-03-30T11:50:17.505Z,31.00
2018-03-30T11:52:44.986Z,31.00
2018-03-30T11:55:12.509Z,31.20
2018-03-30T11:57:40.007Z,31.50
2018-03-30T12:00:07.504Z,30.60
2018-03-30T12:02:35.002Z,29.40
2018-03-30T12:05:02.551Z,29.50
2018-03-30T12:07:30.039Z,30.20
2018-03-30T12:09:57.527Z,30.30
2018-03-30T12:12:25.876Z,28.30
2018-03-30T12:14:53.350Z,28.30
2018-03-30T12:17:20.848Z,28.40
2018-03-30T12:19:48.351Z,28.80
2018-03-30T12:22:15.847Z,29.70
2018-03-30T12:24:44.096Z,28.80
2018-03-30T12:27:11.615Z,28.80
2018-03-30T12:29:39.111Z,28.40
2018-03-30T12:32:06.614Z,27.50
2018-03-30T12:34:34.116Z,26.70
2018-03-30T12:37:01.607Z,26.70
2018-03-30T12:39:29.857Z,27.80
2018-03-30T12:41:57.358Z,27.80
2018-03-30T12:44:24.906Z,27.30
2018-03-30T12:46:53.179Z,27.30
2018-03-30T12:49:21.499Z,26.80
2018-03-30T12:51:49.046Z,26.80
2018-03-30T12:54:16.526Z,26.30
2018-03-30T12:56:44.172Z,26.40
2018-03-30T12:59:11.714Z,26.00
2018-03-30T13:01:39.143Z,24.40
2018-03-30T13:04:06.773Z,25.00
2018-03-30T13:06:34.254Z,26.30
2018-03-30T13:09:01.835Z,26.80
2018-03-30T13:11:30.108Z,27.00
2018-03-30T13:13:58.502Z,27.70
2018-03-30T13:16:25.985Z,27.60
2018-03-30T13:18:53.527Z,27.40
2018-03-30T13:21:21.136Z,27.40
2018-03-30T13:23:48.650Z,27.00
2018-03-30T13:26:16.165Z,27.00
2018-03-30T13:28:43.706Z,26.50
2018-03-30T13:31:11.187Z,27.20
2018-03-30T13:33:38.694Z,26.80
2018-03-30T13:36:06.243Z,26.60
2018-03-30T13:38:33.741Z,24.80
2018-03-30T13:41:01.264Z,25.20
2018-03-30T13:43:28.763Z,24.10
2018-03-30T13:45:57.930Z,25.80
2018-03-30T13:48:25.430Z,25.80
2018-03-30T13:54:17.052Z,26.40
2018-03-30T13:56:46.414Z,26.80
2018-03-30T13:59:14.002Z,27.50
2018-03-30T14:01:53.296Z,26.60
2018-03-30T14:04:33.975Z,27.20
2018-03-30T14:07:09.816Z,27.50
2018-03-30T14:09:38.076Z,27.10
2018-03-30T14:12:10.331Z,27.10
2018-03-30T14:14:37.868Z,27.60
2018-03-30T14:20:24.994Z,29.00
2018-03-30T14:22:55.918Z,28.90
2018-03-30T14:25:23.417Z,29.70
2018-03-30T14:27:57.355Z,30.50
2018-03-30T14:30:25.471Z,30.10
2018-03-30T14:32:59.627Z,30.70
2018-03-30T14:35:34.944Z,30.40
2018-03-30T14:38:06.816Z,29.40
2018-03-30T14:40:45.103Z,28.60
2018-03-30T14:43:15.182Z,29.60
2018-03-30T14:45:53.323Z,28.80
2018-03-30T14:48:20.818Z,28.70
2018-03-30T14:50:53.042Z,28.20
2018-03-30T14:53:23.329Z,28.40
2018-03-30T14:55:58.540Z,27.30
2018-03-30T14:58:27.677Z,27.40
2018-03-30T15:01:01.633Z,27.60
2018-03-30T15:03:37.552Z,27.50
2018-03-30T15:06:13.249Z,30.00
2018-03-30T15:08:41.526Z,30.00
2018-03-30T15:11:12.463Z,30.40
2018-03-30T15:13:41.765Z,31.00
2018-03-30T15:16:16.052Z,31.90
2018-03-30T15:18:43.561Z,33.30
2018-03-30T15:21:15.560Z,32.50
2018-03-30T15:23:44.599Z,32.30
2018-03-30T15:26:19.693Z,32.30
2018-03-30T15:28:49.771Z,34.00
2018-03-30T15:31:25.989Z,34.00
2018-03-30T15:33:54.290Z,34.50
2018-03-30T15:36:27.458Z,34.20
2018-03-30T15:38:54.953Z,34.90
2018-03-30T15:41:22.426Z,34.50
2018-03-30T15:43:50.759Z,35.60
2018-03-30T15:46:24.657Z,36.00
2018-03-30T15:48:52.147Z,36.50
2018-03-30T15:51:21.210Z,36.80
2018-03-30T15:53:48.224Z,36.90
2018-03-30T15:56:16.273Z,38.20
2018-03-30T15:58:43.738Z,37.70
2018-03-30T16:01:11.240Z,50.50
2018-03-30T16:03:39.484Z,40.70
2018-03-30T16:06:06.989Z,40.70
2018-03-30T16:08:34.499Z,41.60
2018-03-30T16:11:13.532Z,42.30
2018-03-30T16:13:41.030Z,41.30
2018-03-30T16:16:08.508Z,42.10
2018-03-30T16:18:47.949Z,44.90
2018-03-30T16:21:14.941Z,42.70
2018-03-30T16:23:42.699Z,43.40
2018-03-30T16:26:09.698Z,43.40
2018-03-30T16:28:36.727Z,43.80
2018-03-30T16:31:03.775Z,44.60
2018-03-30T16:33:30.777Z,46.40
2018-03-30T16:35:57.773Z,45.00
2018-03-30T16:38:24.770Z,47.30
2018-03-30T16:40:51.772Z,47.20
2018-03-30T16:43:18.824Z,48.20
2018-03-30T16:45:46.555Z,48.60
2018-03-30T16:48:14.323Z,52.20
2018-03-30T16:50:42.130Z,49.70
2018-03-30T16:53:09.142Z,49.60
2018-03-30T16:55:37.056Z,53.90
2018-03-30T16:58:04.146Z,54.00
2018-03-30T17:00:31.931Z,56.00
2018-03-30T17:02:58.955Z,56.00
2018-03-30T17:05:26.710Z,57.90
2018-03-30T17:07:53.694Z,57.90
2018-03-30T17:10:20.710Z,81.10
2018-03-30T17:12:47.766Z,61.80
2018-03-30T17:15:15.550Z,66.00
2018-03-30T17:17:42.570Z,65.70
2018-03-30T17:20:09.555Z,67.50
2018-03-30T17:22:36.558Z,68.00
2018-03-30T17:25:03.590Z,72.00
2018-03-30T17:27:30.591Z,75.20
2018-03-30T17:29:57.601Z,76.50
2018-03-30T17:32:24.622Z,76.70
2018-03-30T17:34:51.615Z,81.30
2018-03-30T17:37:18.645Z,83.10
2018-03-30T17:39:45.654Z,86.40
2018-03-30T17:42:12.657Z,87.20
2018-03-30T17:44:40.421Z,88.70
2018-03-30T17:47:08.203Z,90.70
2018-03-30T17:49:35.951Z,92.00
2018-03-30T17:52:03.721Z,90.90
2018-03-30T17:54:31.706Z,91.10
2018-03-30T17:56:58.822Z,91.10
2018-03-30T17:59:26.634Z,92.40
2018-03-30T18:01:53.650Z,92.40
2018-03-30T18:04:21.413Z,93.60
2018-03-30T18:06:48.435Z,93.60
2018-03-30T18:09:15.457Z,93.90
2018-03-30T18:11:42.454Z,96.40
2018-03-30T18:14:10.218Z,99.50
2018-03-30T18:16:37.984Z,99.60
2018-03-30T18:19:05.750Z,99.60
2018-03-30T18:21:32.751Z,99.70
2018-03-30T18:23:59.769Z,99.90
2018-03-30T18:26:26.780Z,98.80
2018-03-30T18:28:54.533Z,98.00
2018-03-30T18:31:21.584Z,97.90
2018-03-30T18:33:49.370Z,99.90
2018-03-30T18:36:16.399Z,99.90
2018-03-30T18:38:43.423Z,99.70
2018-03-30T18:41:10.433Z,99.70
2018-03-30T18:43:37.438Z,99.90
2018-03-30T18:46:05.255Z,99.90
2018-03-30T18:48:32.431Z,99.90
2018-03-30T18:50:59.565Z,99.90
2018-03-30T18:53:26.565Z,99.90
2018-03-30T18:55:54.318Z,99.90
2018-03-30T18:58:22.082Z,99.90
2018-03-30T19:00:49.098Z,99.90
2018-03-30T19:03:16.116Z,99.90
2018-03-30T19:05:43.111Z,99.90
2018-03-30T19:08:10.208Z,99.90
2018-03-30T19:10:37.221Z,99.90
2018-03-30T19:13:04.998Z,99.90
2018-03-30T19:15:32.763Z,99.90
2018-03-30T19:18:00.568Z,99.90
2018-03-30T19:20:27.558Z,99.90
2018-03-30T19:22:55.351Z,99.90
2018-03-30T19:25:22.354Z,99.90
2018-03-30T19:27:49.357Z,99.90
2018-03-30T19:30:16.363Z,99.90
2018-03-30T19:32:44.127Z,99.90
2018-03-30T19:35:11.115Z,99.90
2018-03-30T19:37:38.143Z,99.90
2018-03-30T19:40:05.886Z,99.90
2018-03-30T19:42:32.888Z,99.90
2018-03-30T19:44:59.907Z,99.90
2018-03-30T19:47:26.912Z,99.90
2018-03-30T19:49:53.911Z,99.90
2018-03-30T19:52:20.925Z,99.90
2018-03-30T19:54:48.729Z,99.90
2018-03-30T19:57:15.730Z,99.90
2018-03-30T19:59:42.758Z,99.90
2018-03-30T20:02:09.832Z,99.90
2018-03-30T20:04:37.595Z,99.90
2018-03-30T20:07:05.382Z,99.90
2018-03-30T20:09:32.382Z,99.90
2018-03-30T20:11:59.583Z,99.90
2018-03-30T20:14:26.630Z,99.90
2018-03-30T20:16:53.637Z,99.90
2018-03-30T20:19:20.785Z,99.90
2018-03-30T20:21:47.824Z,99.90
2018-03-30T20:24:14.848Z,99.90
2018-03-30T20:26:41.851Z,99.90
2018-03-30T20:29:09.669Z,99.90
2018-03-30T20:31:36.867Z,99.90
2018-03-30T20:34:04.662Z,99.90
2018-03-30T20:36:31.696Z,99.90
2018-03-30T20:38:58.749Z,99.90
2018-03-30T20:41:25.803Z,99.90
2018-03-30T20:43:52.831Z,99.90
2018-03-30T20:46:20.591Z,99.90
2018-03-30T20:48:48.356Z,99.90
2018-03-30T20:51:16.165Z,99.90
2018-03-30T20:53:43.223Z,99.90
2018-03-30T20:56:10.282Z,99.90
2018-03-30T20:58:37.332Z,99.90
2018-03-30T21:01:04.367Z,99.90
2018-03-30T21:03:31.430Z,99.90
2018-03-30T21:05:58.505Z,99.90
2018-03-30T21:08:25.627Z,99.90
2018-03-30T21:10:52.620Z,99.90
2018-03-30T21:13:19.666Z,99.90
2018-03-30T21:15:46.869Z,99.90
2018-03-30T21:18:13.914Z,99.90
2018-03-30T21:20:40.975Z,99.90
2018-03-30T21:23:08.035Z,99.90
2018-03-30T21:25:35.096Z,99.90
2018-03-30T21:28:02.913Z,99.90
2018-03-30T21:30:29.951Z,99.90
2018-03-30T21:32:57.001Z,99.90
2018-03-30T21:35:24.069Z,99.90
2018-03-30T21:37:51.098Z,99.90
2018-03-30T21:40:18.136Z,99.90
2018-03-30T21:42:45.169Z,99.90
2018-03-30T21:45:12.198Z,99.90
2018-03-30T21:47:39.987Z,99.90
2018-03-30T21:50:07.047Z,99.90
2018-03-30T21:52:34.102Z,99.90
2018-03-30T21:55:01.132Z,99.90
2018-03-30T21:57:28.178Z,99.90
2018-03-30T21:59:55.290Z,99.90
2018-03-30T22:02:23.226Z,99.90
2018-03-30T22:04:50.278Z,99.90
2018-03-30T22:07:17.282Z,99.90
2018-03-30T22:09:44.269Z,99.90
2018-03-30T22:12:11.278Z,99.90
2018-03-30T22:14:38.415Z,99.90
2018-03-30T22:17:06.257Z,99.90
2018-03-30T22:19:34.082Z,99.90
2018-03-30T22:22:01.236Z,99.90
2018-03-30T22:24:28.240Z,99.90
2018-03-30T22:26:56.032Z,99.90
2018-03-30T22:29:23.083Z,99.90
2018-03-30T22:31:50.116Z,99.90
2018-03-30T22:34:17.163Z,99.90
2018-03-30T22:36:44.146Z,99.90
2018-03-30T22:39:11.192Z,99.90
2018-03-30T22:41:38.266Z,99.90
2018-03-30T22:44:05.268Z,99.90
2018-03-30T22:46:32.277Z,99.90
2018-03-30T22:49:00.063Z,99.90
2018-03-30T22:51:27.045Z,99.90
2018-03-30T22:53:54.033Z,99.90
2018-03-30T22:56:21.054Z,99.90
2018-03-30T22:58:48.075Z,99.90
2018-03-30T23:01:15.130Z,99.90
2018-03-30T23:03:42.575Z,99.90
2018-03-30T23:06:09.666Z,99.90
2018-03-30T23:08:36.676Z,99.90
2018-03-30T23:11:03.730Z,99.90
2018-03-30T23:13:30.727Z,99.90
2018-03-30T23:15:58.582Z,99.90
2018-03-30T23:18:26.404Z,99.90
2018-03-30T23:20:53.396Z,99.90
2018-03-30T23:23:20.399Z,99.90
2018-03-30T23:25:47.430Z,99.90
2018-03-30T23:28:14.461Z,99.90
2018-03-30T23:30:42.236Z,99.90
2018-03-30T23:33:09.282Z,99.90
2018-03-30T23:35:36.292Z,99.90
2018-03-30T23:38:03.300Z,99.90
2018-03-30T23:40:30.313Z,99.90
2018-03-30T23:42:57.342Z,99.90
2018-03-30T23:45:24.348Z,99.90
2018-03-30T23:47:51.414Z,99.90
2018-03-30T23:50:18.426Z,99.90
2018-03-30T23:52:45.419Z,99.90
2018-03-30T23:55:12.426Z,99.90
2018-03-30T23:57:39.455Z,99.90
